Airfield :
LOGIN :

Register | Disclaimer

   EN    FR    IT 

 










Legend :    VFR   Marginal VFR   IFR   Intensive IFR   Very Intensive IFR
Visi :
Ceiling :
>= 8 km
>= 3000ft
5 to 8 km
1000 to 3000 ft
1500m to 5 km
500 to 1000 ft
800 to 1500m
200 to 500 ft
< 800m
< 200 ft
Symbols :   Thunderstorms  Fog  Heavy snow  Heavy precipitations  Wind > 20 kt
SIGMETs :     Misc.  Thunderstorms  Icing  Turbulence  Mountain Waves  Volcanic Ashes






- Airport Elevation : 44 ft
- IATA code : SOU


EGHI - Southampton

CURRENT METAR :
  • 041120Z 28007KT 230V320 9999 SCT035 20/10 Q1022

EXPIRED METARs :
  • 041050Z VRB06KT 9999 SCT035 19/09 Q1022
  • 041020Z 24007KT 180V310 9999 SCT035 19/10 Q1022
  • 040950Z 28006KT 230V310 9999 SCT027 17/10 Q1022
  • 040920Z 25006KT 210V350 9999 SCT024 18/11 Q1022
  • 040850Z 28006KT 250V310 9999 FEW022 16/10 Q1023

TAF TAF EGHI
Valid from the 04 at 12:00 until the 04 at 21:00 UTC


041058Z 0412/0421 26007KT 9999 SCT035
ATIS : +44 23 8062 7103



MET'MAP, your aeronautical weather chart ! - Copyright ORBIFLY December 2007 - Disclaimer

ORBIFLY MET'MAP TEAM :

Programming & Development : Alexandra Zaïnal
Original concept : Baudouin d'Aumeries
Technical & hardware support : Manuel Goepfert
Assistance : Marc-Olivier Méhu




SOURCES & CREDITS :

   NOAA